Time;durP1;ratioP1;P1;durP2;ratioP2;P2;SDS_P1;SDS_P2;PMS_P1;PMS_P2;Temp;Humidity;BMP_temperature;BMP_pressure;BME280_temperature;BME280_humidity;BME280_pressure;Samples;Min_cycle;Max_cycle;Signal;HPM_P1;HPM_P2
2021/11/12 00:13:44;;;;;;;31.00;18.80;;;7.80;55.00;;;;;;4643133;28;20920;-68
2021/11/12 00:16:04;;;;;;;30.45;17.55;;;7.40;56.10;;;;;;4645496;28;20094;-68
2021/11/12 00:18:23;;;;;;;28.58;15.82;;;7.00;57.00;;;;;;4646763;28;20072;-70
2021/11/12 00:20:43;;;;;;;31.17;18.10;;;6.80;57.80;;;;;;4646090;28;20094;-68
2021/11/12 00:23:01;;;;;;;29.30;16.88;;;6.50;58.40;;;;;;4645535;28;20040;-68
2021/11/12 00:25:18;;;;;;;32.20;16.70;;;6.30;59.10;;;;;;4641820;28;20083;-69
2021/11/12 00:27:38;;;;;;;28.40;16.80;;;6.10;59.70;;;;;;4646651;28;20488;-69
2021/11/12 00:30:01;;;;;;;29.88;16.58;;;6.00;61.20;;;;;;4645372;28;20410;-70
2021/11/12 00:32:26;;;;;;;35.85;17.95;;;5.80;61.00;;;;;;4645854;28;20095;-69
2021/11/12 00:35:10;;;;;;;31.73;17.90;;;5.70;61.60;;;;;;4643402;28;20041;-69
2021/11/12 00:37:37;;;;;;;28.20;16.45;;;5.50;62.20;;;;;;4645918;28;20049;-69
2021/11/12 00:39:58;;;;;;;30.58;16.92;;;5.40;62.80;;;;;;4646199;28;20384;-69
2021/11/12 00:42:17;;;;;;;29.98;15.93;;;5.30;63.30;;;;;;4646824;28;20040;-70
2021/11/12 00:44:39;;;;;;;31.55;17.80;;;5.20;63.70;;;;;;4645531;28;20084;-69
2021/11/12 00:47:00;;;;;;;33.88;16.65;;;5.20;64.30;;;;;;4644513;28;20440;-70
2021/11/12 00:49:23;;;;;;;33.35;16.73;;;5.10;64.60;;;;;;4645383;28;20410;-70
2021/11/12 00:51:43;;;;;;;31.83;15.70;;;5.00;65.00;;;;;;4640160;28;20064;-69
2021/11/12 00:54:07;;;;;;;30.00;16.40;;;5.00;65.40;;;;;;4635847;28;20941;-70
2021/11/12 00:56:26;;;;;;;30.98;16.23;;;4.90;65.80;;;;;;4635071;28;20048;-70
2021/11/12 00:58:46;;;;;;;30.38;16.13;;;4.90;66.10;;;;;;4632516;28;20104;-69
2021/11/12 01:01:04;;;;;;;28.38;15.93;;;4.90;66.40;;;;;;4632370;28;20073;-69
2021/11/12 01:03:21;;;;;;;29.00;16.02;;;4.80;66.70;;;;;;4633737;28;20049;-69
2021/11/12 01:05:39;;;;;;;32.85;16.58;;;4.80;67.10;;;;;;4632311;28;20080;-70
2021/11/12 01:07:56;;;;;;;29.80;16.67;;;4.70;67.30;;;;;;4648715;28;20454;-70
2021/11/12 01:10:14;;;;;;;29.83;15.40;;;4.70;68.40;;;;;;4631343;28;20041;-70
2021/11/12 01:12:31;;;;;;;27.10;15.18;;;4.70;68.00;;;;;;4632706;28;20517;-70
2021/11/12 01:14:50;;;;;;;30.33;15.73;;;4.70;68.30;;;;;;4638154;28;20144;-69
2021/11/12 01:17:06;;;;;;;31.48;15.75;;;4.60;68.50;;;;;;4622536;28;20049;-70
2021/11/12 01:19:23;;;;;;;29.67;15.73;;;4.60;68.70;;;;;;4633638;28;20071;-69
2021/11/12 01:21:42;;;;;;;30.13;15.35;;;4.60;69.00;;;;;;4616642;28;20125;-69
2021/11/12 01:23:58;;;;;;;26.67;14.52;;;4.60;69.20;;;;;;4630587;28;20041;-69
2021/11/12 01:26:15;;;;;;;29.67;15.70;;;4.60;69.40;;;;;;4613475;28;20037;-69
2021/11/12 01:28:32;;;;;;;28.30;14.82;;;4.60;69.60;;;;;;4630276;28;20507;-68
2021/11/12 01:30:48;;;;;;;29.58;15.93;;;4.50;69.80;;;;;;4628638;28;20052;-69
2021/11/12 01:33:06;;;;;;;30.75;15.50;;;4.50;70.00;;;;;;4614783;28;20128;-68
2021/11/12 01:35:24;;;;;;;29.00;15.60;;;4.50;70.30;;;;;;4612970;28;20044;-68
2021/11/12 01:37:43;;;;;;;31.58;15.70;;;4.50;70.50;;;;;;4629144;28;20041;-68
2021/11/12 01:40:01;;;;;;;31.70;15.65;;;4.40;70.70;;;;;;4613705;28;20080;-68
2021/11/12 01:42:18;;;;;;;33.15;15.20;;;4.40;70.90;;;;;;4630053;28;20063;-68
2021/11/12 01:44:37;;;;;;;31.05;14.93;;;4.40;71.00;;;;;;4613090;28;20053;-68
2021/11/12 01:47:10;;;;;;;27.40;15.30;;;4.40;71.20;;;;;;4612572;28;20123;-70
2021/11/12 01:49:30;;;;;;;29.63;15.38;;;4.40;71.40;;;;;;4630652;28;20494;-69
2021/11/12 01:51:51;;;;;;;30.67;15.85;;;4.40;71.70;;;;;;4630485;28;20052;-69
2021/11/12 01:54:24;;;;;;;30.25;14.63;;;4.30;71.70;;;;;;4623765;28;20100;-69
2021/11/12 01:56:43;;;;;;;26.85;14.00;;;4.30;71.90;;;;;;4626839;28;20049;-70
2021/11/12 01:59:14;;;;;;;27.23;14.77;;;4.30;72.10;;;;;;4622046;28;20051;-69
2021/11/12 02:01:32;;;;;;;27.27;14.27;;;4.30;72.20;;;;;;4613720;28;20073;-69
2021/11/12 02:03:53;;;;;;;28.55;14.52;;;4.30;72.50;;;;;;4628534;28;20048;-70
2021/11/12 02:06:11;;;;;;;27.38;14.85;;;4.30;72.60;;;;;;4627401;28;20103;-69
2021/11/12 02:08:28;;;;;;;26.08;14.63;;;4.30;72.70;;;;;;4611914;28;20092;-68
2021/11/12 02:10:46;;;;;;;27.85;14.10;;;4.30;72.80;;;;;;4612615;28;20049;-69
2021/11/12 02:13:06;;;;;;;28.40;14.57;;;4.30;72.90;;;;;;4612703;28;20071;-69
2021/11/12 02:15:23;;;;;;;29.77;15.35;;;4.30;73.00;;;;;;4612590;28;20069;-69
2021/11/12 02:17:43;;;;;;;29.45;15.43;;;4.20;73.20;;;;;;4612691;28;20041;-69
2021/11/12 02:20:06;;;;;;;26.33;14.25;;;4.20;73.30;;;;;;4629303;28;20045;-69
2021/11/12 02:22:27;;;;;;;27.08;14.73;;;4.20;73.50;;;;;;4612558;28;20119;-69
2021/11/12 02:24:48;;;;;;;26.27;14.75;;;4.20;73.60;;;;;;4614188;28;20046;-69
2021/11/12 02:27:06;;;;;;;28.05;15.38;;;4.20;73.70;;;;;;4627508;28;20589;-69
2021/11/12 02:29:27;;;;;;;31.30;15.13;;;4.20;73.70;;;;;;4629422;28;20072;-69
2021/11/12 02:31:43;;;;;;;29.15;14.52;;;4.20;73.90;;;;;;4612395;28;20044;-68
2021/11/12 02:34:06;;;;;;;29.10;15.18;;;4.20;73.90;;;;;;4629169;28;20074;-69
2021/11/12 02:36:23;;;;;;;27.23;15.15;;;4.20;74.10;;;;;;4612961;28;20152;-69
2021/11/12 02:38:44;;;;;;;29.90;15.48;;;4.20;74.20;;;;;;4628557;28;20053;-69
2021/11/12 02:41:00;;;;;;;29.98;15.00;;;4.20;75.00;;;;;;4613043;28;20056;-69
2021/11/12 02:43:19;;;;;;;28.80;14.27;;;4.20;74.40;;;;;;4627961;28;20076;-69
2021/11/12 02:45:38;;;;;;;26.23;13.80;;;4.10;74.50;;;;;;4628487;28;20041;-69
2021/11/12 02:47:55;;;;;;;29.73;14.48;;;4.10;74.60;;;;;;4627468;28;20132;-69
2021/11/12 02:50:12;;;;;;;26.67;14.23;;;4.10;74.60;;;;;;4628974;28;20064;-69
2021/11/12 02:52:29;;;;;;;32.40;14.68;;;4.10;74.80;;;;;;4611972;28;20068;-69
2021/11/12 02:54:49;;;;;;;25.15;13.00;;;4.10;74.80;;;;;;4612229;28;20133;-69
2021/11/12 02:57:07;;;;;;;27.67;14.52;;;4.10;74.90;;;;;;4611915;28;20057;-69
2021/11/12 02:59:23;;;;;;;25.50;13.55;;;4.10;74.90;;;;;;4628904;28;20426;-68
2021/11/12 03:01:44;;;;;;;34.20;15.25;;;4.10;75.00;;;;;;4626825;28;20130;-68
2021/11/12 03:04:02;;;;;;;26.02;13.48;;;4.10;75.10;;;;;;4613565;28;20053;-68
2021/11/12 03:06:19;;;;;;;30.58;14.18;;;4.00;75.80;;;;;;4610507;28;20049;-68
2021/11/12 03:08:35;;;;;;;28.52;13.68;;;4.10;75.30;;;;;;4613109;28;20048;-68
2021/11/12 03:10:56;;;;;;;25.40;12.88;;;4.00;75.30;;;;;;4612328;28;20448;-68
2021/11/12 03:13:15;;;;;;;31.58;13.77;;;4.00;76.20;;;;;;4627969;28;20095;-68
2021/11/12 03:15:31;;;;;;;28.08;13.95;;;4.00;75.50;;;;;;4612272;28;20046;-68
2021/11/12 03:17:52;;;;;;;26.65;14.32;;;4.10;75.70;;;;;;4612275;28;20095;-70
2021/11/12 03:20:12;;;;;;;28.10;13.88;;;4.00;75.70;;;;;;4628047;28;20145;-69
2021/11/12 03:22:34;;;;;;;25.85;14.55;;;4.00;75.70;;;;;;4611844;28;20049;-70
2021/11/12 03:24:53;;;;;;;27.15;12.77;;;4.00;75.80;;;;;;4612937;28;20072;-69
2021/11/12 03:27:17;;;;;;;25.63;13.43;;;4.00;75.80;;;;;;4626548;28;20131;-69
2021/11/12 04:00:42;;;;;;;26.98;13.05;;;3.70;76.60;;;;;;4629365;28;20072;-70
2021/11/12 04:03:11;;;;;;;26.33;13.68;;;3.80;76.70;;;;;;4645386;28;20048;-69
2021/11/12 04:05:55;;;;;;;25.05;12.05;;;3.70;76.60;;;;;;4626346;28;20079;-70
2021/11/12 04:18:45;;;;;;;26.85;11.95;;;3.70;76.80;;;;;;4661770;28;20391;-69
2021/11/12 04:42:05;;;;;;;28.33;13.65;;;3.60;77.30;;;;;;4631642;28;20048;-68
2021/11/12 05:03:18;;;;;;;26.90;12.63;;;3.50;77.60;;;;;;4632080;28;20053;-69
2021/11/12 05:11:10;;;;;;;25.17;12.40;;;3.50;77.80;;;;;;4631725;28;20144;-69
2021/11/12 05:13:50;;;;;;;28.63;13.77;;;3.50;77.80;;;;;;4632597;28;20044;-69
2021/11/12 05:34:37;;;;;;;26.38;13.35;;;3.50;78.20;;;;;;4647789;28;20068;-69
2021/11/12 05:44:41;;;;;;;29.40;13.43;;;3.50;78.30;;;;;;4629105;28;20483;-69
2021/11/12 05:49:41;;;;;;;26.48;13.73;;;3.50;78.40;;;;;;4614041;28;20045;-69
2021/11/12 05:49:51;;;;;;;26.65;13.93;;;3.50;78.50;;;;;;4628579;28;20064;-69
2021/11/12 05:55:02;;;;;;;26.90;12.93;;;3.50;78.50;;;;;;4614538;28;20049;-69
2021/11/12 05:55:06;;;;;;;27.48;14.00;;;3.50;78.50;;;;;;4628197;28;20064;-69
2021/11/12 05:57:26;;;;;;;26.73;12.93;;;3.50;78.50;;;;;;4614179;28;20399;-69
2021/11/12 05:59:42;;;;;;;28.42;13.68;;;3.50;79.20;;;;;;4613421;28;20393;-69
2021/11/12 06:02:01;;;;;;;26.45;13.23;;;3.50;78.50;;;;;;4628942;28;20491;-67
2021/11/12 06:04:17;;;;;;;28.23;12.25;;;3.60;78.60;;;;;;4613599;28;20041;-69
2021/11/12 06:06:34;;;;;;;29.13;14.00;;;3.60;78.60;;;;;;4628433;28;20065;-68
2021/11/12 06:08:53;;;;;;;29.75;13.50;;;3.60;78.60;;;;;;4629222;28;20085;-68
2021/11/12 06:11:09;;;;;;;29.73;13.77;;;3.60;78.60;;;;;;4612947;28;20506;-68
2021/11/12 06:13:26;;;;;;;28.70;14.18;;;3.60;78.60;;;;;;4613314;28;20049;-69
2021/11/12 06:15:42;;;;;;;32.75;14.38;;;3.70;79.40;;;;;;4627893;28;20069;-69
2021/11/12 06:18:03;;;;;;;25.02;13.55;;;3.70;78.60;;;;;;4629236;28;20553;-69
2021/11/12 06:20:22;;;;;;;29.58;14.25;;;3.70;79.40;;;;;;4611391;28;20041;-70
2021/11/12 06:22:41;;;;;;;28.80;13.10;;;3.80;78.70;;;;;;4629346;28;20118;-69
2021/11/12 06:25:00;;;;;;;27.70;14.75;;;3.80;78.70;;;;;;4612081;28;20053;-70
2021/11/12 06:27:20;;;;;;;27.17;14.13;;;3.80;78.60;;;;;;4626784;28;20245;-69
2021/11/12 06:29:37;;;;;;;30.45;13.68;;;3.90;78.70;;;;;;4610432;28;20080;-69
2021/11/12 06:31:54;;;;;;;29.85;13.68;;;3.90;78.80;;;;;;4626590;28;20118;-68
2021/11/12 06:34:12;;;;;;;27.70;13.88;;;4.00;78.70;;;;;;4625719;28;20144;-69
2021/11/12 06:36:29;;;;;;;30.00;13.55;;;4.00;78.70;;;;;;4610960;28;20535;-69
2021/11/12 06:38:46;;;;;;;27.45;13.27;;;4.10;78.70;;;;;;4611141;28;20049;-70
2021/11/12 06:41:08;;;;;;;25.02;12.52;;;4.10;78.60;;;;;;4611281;28;20045;-69
2021/11/12 06:43:29;;;;;;;27.77;12.35;;;4.10;78.60;;;;;;4628469;28;20045;-68
2021/11/12 06:50:54;;;;;;;27.17;12.63;;;4.30;78.60;;;;;;4625218;28;20094;-68
2021/11/12 06:53:11;;;;;;;28.98;13.55;;;4.30;78.60;;;;;;4612271;28;20049;-69
2021/11/12 06:55:27;;;;;;;28.85;13.38;;;4.40;78.60;;;;;;4624592;28;20055;-69
2021/11/12 06:57:45;;;;;;;27.23;13.27;;;4.40;78.60;;;;;;4626804;28;20079;-69
2021/11/12 07:00:06;;;;;;;26.95;12.65;;;4.50;78.70;;;;;;4609326;28;20068;-69
2021/11/12 07:02:25;;;;;;;25.60;12.45;;;4.50;78.60;;;;;;4610401;28;20586;-69
2021/11/12 07:04:44;;;;;;;24.98;12.73;;;4.60;78.70;;;;;;4610912;28;20072;-69
2021/11/12 07:07:02;;;;;;;29.05;13.95;;;4.60;78.60;;;;;;4611966;28;20373;-70
2021/11/12 07:09:19;;;;;;;26.83;12.40;;;4.70;78.70;;;;;;4612328;28;20043;-69
2021/11/12 07:11:36;;;;;;;24.63;12.75;;;4.80;78.60;;;;;;4611853;28;20412;-69
2021/11/12 07:13:53;;;;;;;27.17;12.75;;;4.80;78.60;;;;;;4612801;28;20553;-69
2021/11/12 07:16:09;;;;;;;27.65;12.63;;;4.90;78.50;;;;;;4626952;28;20415;-70
2021/11/12 07:18:28;;;;;;;26.30;11.77;;;4.90;78.50;;;;;;4628041;28;20069;-69
2021/11/12 07:20:45;;;;;;;21.63;11.52;;;5.00;79.30;;;;;;4626888;28;20045;-69
2021/11/12 07:23:03;;;;;;;26.20;12.93;;;5.10;78.60;;;;;;4612868;28;20407;-68
2021/11/12 07:25:20;;;;;;;24.38;12.20;;;5.10;78.60;;;;;;4610158;28;20072;-69
2021/11/12 07:27:36;;;;;;;25.77;12.13;;;5.20;78.60;;;;;;4612902;28;20111;-68
2021/11/12 07:30:05;;;;;;;23.48;12.45;;;5.30;78.50;;;;;;4611353;28;20048;-69
2021/11/12 07:32:22;;;;;;;27.27;12.32;;;5.40;78.50;;;;;;4612734;28;20342;-68
2021/11/12 07:34:40;;;;;;;23.35;12.23;;;5.40;78.50;;;;;;4611513;28;20049;-68
2021/11/12 07:37:01;;;;;;;28.88;13.52;;;5.50;78.50;;;;;;4627571;28;20041;-67
2021/11/12 07:39:26;;;;;;;25.38;12.88;;;5.60;78.40;;;;;;4627298;28;20072;-68
2021/11/12 07:42:05;;;;;;;24.02;12.73;;;5.70;78.30;;;;;;4627250;28;20433;-68
2021/11/12 07:44:37;;;;;;;24.75;12.20;;;5.70;78.30;;;;;;4612292;28;20045;-68
2021/11/12 07:47:01;;;;;;;24.55;12.73;;;5.80;78.20;;;;;;4626585;28;20073;-68
2021/11/12 07:49:19;;;;;;;27.83;13.00;;;5.90;78.20;;;;;;4612872;28;20049;-67
2021/11/12 07:51:37;;;;;;;26.38;12.73;;;6.00;78.20;;;;;;4626170;28;20048;-68
2021/11/12 07:53:54;;;;;;;25.58;12.85;;;6.10;78.20;;;;;;4627823;28;20041;-68
2021/11/12 07:56:11;;;;;;;27.98;13.52;;;6.10;78.00;;;;;;4611358;28;20136;-69
2021/11/12 07:58:28;;;;;;;27.63;13.25;;;6.20;78.00;;;;;;4627588;28;20128;-68
2021/11/12 08:00:48;;;;;;;28.30;13.95;;;6.30;78.00;;;;;;4611645;28;20069;-68
2021/11/12 08:03:05;;;;;;;25.20;13.27;;;6.40;78.00;;;;;;4611887;28;20049;-68
2021/11/12 08:05:24;;;;;;;27.00;13.90;;;6.40;77.80;;;;;;4611754;28;20048;-70
2021/11/12 08:07:41;;;;;;;28.55;13.52;;;6.50;77.70;;;;;;4630501;28;20076;-68
2021/11/12 08:09:58;;;;;;;26.17;13.05;;;6.60;77.70;;;;;;4615663;28;20053;-68
2021/11/12 08:12:19;;;;;;;28.17;14.43;;;6.70;77.70;;;;;;4614857;28;20130;-69
2021/11/12 08:14:38;;;;;;;28.83;13.88;;;6.80;77.70;;;;;;4631197;28;20088;-69
2021/11/12 08:17:19;;;;;;;27.65;14.20;;;6.90;77.60;;;;;;4614813;28;20045;-68
2021/11/12 08:19:39;;;;;;;25.58;13.50;;;7.00;77.60;;;;;;4631386;28;20547;-69
2021/11/12 08:22:02;;;;;;;27.77;13.77;;;7.10;77.50;;;;;;4614401;28;20073;-69
2021/11/12 08:24:29;;;;;;;29.48;14.40;;;7.10;78.10;;;;;;4630901;28;20431;-69
2021/11/12 08:26:59;;;;;;;23.33;11.93;;;7.20;77.30;;;;;;4615056;28;20051;-69
2021/11/12 08:29:28;;;;;;;23.33;13.70;;;7.30;77.20;;;;;;4630141;28;20457;-69
2021/11/12 08:32:18;;;;;;;22.60;12.75;;;7.40;77.20;;;;;;4615564;28;20038;-68
2021/11/12 08:34:45;;;;;;;22.70;13.23;;;7.50;77.00;;;;;;4629697;28;20068;-69
2021/11/12 08:37:08;;;;;;;25.08;12.82;;;7.70;76.90;;;;;;4631183;28;20095;-69
2021/11/12 08:39:41;;;;;;;24.73;13.95;;;7.70;76.70;;;;;;4629729;28;20045;-70
2021/11/12 08:42:00;;;;;;;25.83;15.18;;;7.80;76.70;;;;;;4630271;28;20076;-70
2021/11/12 08:44:22;;;;;;;30.67;15.35;;;7.90;76.60;;;;;;4614538;28;20073;-69
2021/11/12 08:46:45;;;;;;;28.48;16.38;;;8.00;76.50;;;;;;4614332;28;20056;-69
2021/11/12 08:49:06;;;;;;;26.25;15.68;;;8.10;76.40;;;;;;4630149;28;20246;-69
2021/11/12 08:51:31;;;;;;;27.77;15.90;;;8.20;76.30;;;;;;4614459;28;20050;-70
2021/11/12 08:53:49;;;;;;;28.95;16.42;;;8.40;76.20;;;;;;4620773;28;20043;-70
2021/11/12 08:56:13;;;;;;;32.05;17.17;;;8.50;76.00;;;;;;4640943;28;20544;-70
2021/11/12 08:58:30;;;;;;;32.97;16.98;;;8.50;75.70;;;;;;4629598;28;20033;-70
2021/11/12 09:00:48;;;;;;;30.23;17.63;;;8.70;75.70;;;;;;4627915;28;20610;-69
2021/11/12 09:03:05;;;;;;;33.25;17.27;;;8.70;75.50;;;;;;4629786;28;20479;-70
2021/11/12 09:05:22;;;;;;;32.70;16.90;;;8.80;75.30;;;;;;4626165;28;20079;-70
2021/11/12 09:07:39;;;;;;;31.70;16.88;;;8.90;75.20;;;;;;4626660;28;20049;-70
2021/11/12 09:09:56;;;;;;;31.13;16.92;;;9.00;75.20;;;;;;4627887;28;20079;-68
2021/11/12 09:12:13;;;;;;;31.95;17.08;;;9.10;74.90;;;;;;4626538;28;20045;-69
2021/11/12 09:14:30;;;;;;;29.65;17.10;;;9.20;74.80;;;;;;4627170;28;20048;-70
2021/11/12 09:16:49;;;;;;;67.40;33.17;;;9.20;74.60;;;;;;4642524;28;20087;-71
2021/11/12 09:19:07;;;;;;;49.00;25.90;;;9.30;74.60;;;;;;4626615;28;20053;-70
2021/11/12 09:21:23;;;;;;;80.00;49.90;;;9.60;77.90;;;;;;4627198;28;20122;-65
2021/11/12 09:23:41;;;;;;;80.40;43.20;;;10.00;77.20;;;;;;4628060;28;20049;-67
2021/11/12 09:25:57;;;;;;;68.32;39.47;;;10.20;73.50;;;;;;4627213;28;20495;-67
2021/11/12 09:28:15;;;;;;;28.02;16.00;;;10.20;72.70;;;;;;4630732;28;20072;-67
2021/11/12 09:30:35;;;;;;;26.77;15.90;;;10.20;72.60;;;;;;4630684;28;20096;-66
2021/11/12 09:32:55;;;;;;;24.75;14.93;;;10.10;72.50;;;;;;4643427;28;20048;-66
2021/11/12 09:35:11;;;;;;;26.08;15.35;;;10.20;72.50;;;;;;4625698;28;20774;-67
2021/11/12 09:37:28;;;;;;;27.73;15.82;;;10.10;72.60;;;;;;4643008;28;20075;-66
2021/11/12 09:39:44;;;;;;;28.25;16.23;;;10.20;72.40;;;;;;4626330;28;20053;-66
2021/11/12 09:42:01;;;;;;;31.75;15.77;;;10.20;72.40;;;;;;4627914;28;20415;-66
2021/11/12 09:44:20;;;;;;;30.85;15.27;;;10.30;72.20;;;;;;4624386;28;20076;-67
2021/11/12 09:46:36;;;;;;;30.23;14.88;;;10.30;72.10;;;;;;4642961;28;20045;-67
2021/11/12 09:48:54;;;;;;;26.70;16.30;;;10.30;71.90;;;;;;4626701;28;20424;-66
2021/11/12 09:51:12;;;;;;;25.27;15.93;;;10.30;71.80;;;;;;4626828;28;20542;-66
2021/11/12 09:53:28;;;;;;;24.30;14.68;;;10.40;71.70;;;;;;4625694;28;20532;-66
2021/11/12 09:55:45;;;;;;;23.27;14.90;;;10.40;71.70;;;;;;4641910;28;20051;-67
2021/11/12 09:58:07;;;;;;;26.83;14.48;;;10.50;71.60;;;;;;4625497;28;20115;-67
2021/11/12 10:00:26;;;;;;;27.13;14.05;;;10.50;71.40;;;;;;4626503;28;20057;-67
2021/11/12 10:02:45;;;;;;;25.08;14.57;;;10.60;71.40;;;;;;4626793;28;20091;-66
2021/11/12 10:05:06;;;;;;;23.63;13.95;;;10.60;71.20;;;;;;4625974;28;20130;-66
2021/11/12 10:07:23;;;;;;;23.10;13.70;;;10.70;71.00;;;;;;4642081;28;20055;-67
2021/11/12 10:09:40;;;;;;;28.17;15.63;;;10.70;70.90;;;;;;4625806;28;20049;-66
2021/11/12 10:11:59;;;;;;;25.45;14.77;;;10.80;70.80;;;;;;4627482;28;20495;-66
2021/11/12 10:14:24;;;;;;;25.02;14.23;;;10.80;70.70;;;;;;4623908;28;20045;-66
2021/11/12 10:16:42;;;;;;;25.17;14.02;;;10.80;70.40;;;;;;4627049;28;20060;-65
2021/11/12 10:19:09;;;;;;;23.48;13.80;;;10.90;70.40;;;;;;4625645;28;20076;-66
2021/11/12 10:21:29;;;;;;;24.05;14.18;;;11.00;70.20;;;;;;4626767;28;20048;-65
2021/11/12 10:23:46;;;;;;;23.92;13.93;;;11.00;70.10;;;;;;4626274;28;20456;-66
2021/11/12 10:26:04;;;;;;;23.38;14.15;;;11.10;69.80;;;;;;4625834;28;20045;-67
2021/11/12 10:28:34;;;;;;;33.20;19.58;;;11.10;69.70;;;;;;4625831;28;20529;-66
2021/11/12 10:30:50;;;;;;;23.15;12.73;;;11.20;69.70;;;;;;4641266;28;20470;-65
2021/11/12 10:33:07;;;;;;;20.48;12.65;;;11.20;69.40;;;;;;4626477;28;20081;-65
2021/11/12 10:35:26;;;;;;;24.17;13.30;;;11.20;69.20;;;;;;4624475;28;20330;-65
2021/11/12 10:37:46;;;;;;;25.25;13.98;;;11.30;69.10;;;;;;4642250;28;20066;-65
2021/11/12 10:40:07;;;;;;;21.13;13.30;;;11.40;68.90;;;;;;4624782;28;20080;-65
2021/11/12 10:42:27;;;;;;;22.05;13.18;;;11.40;68.70;;;;;;4625331;28;20451;-64
2021/11/12 10:44:47;;;;;;;22.85;13.35;;;11.50;68.50;;;;;;4625640;28;20053;-65
2021/11/12 10:47:05;;;;;;;22.25;12.68;;;11.50;68.20;;;;;;4642448;28;20072;-65
2021/11/12 10:49:31;;;;;;;23.13;14.15;;;11.50;68.00;;;;;;4626400;28;20124;-65
2021/11/12 10:51:52;;;;;;;21.60;12.35;;;11.60;67.90;;;;;;4625494;28;20419;-65
2021/11/12 10:54:11;;;;;;;22.15;12.43;;;11.60;67.80;;;;;;4639896;28;20071;-65
2021/11/12 10:56:48;;;;;;;19.50;12.50;;;11.70;67.60;;;;;;4625136;28;20530;-65
2021/11/12 10:59:07;;;;;;;21.15;12.82;;;11.80;68.20;;;;;;4625091;28;20479;-65
2021/11/12 11:01:35;;;;;;;23.13;13.75;;;11.80;67.20;;;;;;4626165;28;20503;-64
2021/11/12 11:03:51;;;;;;;22.35;13.05;;;11.90;66.70;;;;;;4626825;28;20048;-64
2021/11/12 11:06:08;;;;;;;23.70;11.40;;;11.90;66.70;;;;;;4625658;28;20071;-64
2021/11/12 11:08:26;;;;;;;19.33;11.80;;;11.90;66.50;;;;;;4627048;28;20048;-64
2021/11/12 11:10:47;;;;;;;21.55;11.85;;;12.00;66.50;;;;;;4625777;28;20407;-64
2021/11/12 11:13:09;;;;;;;23.52;11.90;;;12.10;66.20;;;;;;4625670;28;20053;-64
2021/11/12 11:15:32;;;;;;;19.20;11.43;;;12.10;66.00;;;;;;4626231;28;20041;-64
2021/11/12 11:17:50;;;;;;;18.50;10.57;;;12.20;65.80;;;;;;4625097;28;20450;-66
2021/11/12 11:20:10;;;;;;;17.88;10.75;;;12.20;65.60;;;;;;4625887;28;20083;-65
2021/11/12 11:22:30;;;;;;;19.58;11.90;;;12.20;65.30;;;;;;4626193;28;20103;-66
2021/11/12 11:24:50;;;;;;;19.77;11.98;;;12.30;65.10;;;;;;4626534;28;20406;-64
2021/11/12 11:27:08;;;;;;;17.67;10.73;;;12.30;64.80;;;;;;4625815;28;20045;-65
2021/11/12 11:29:25;;;;;;;20.88;12.10;;;12.40;64.70;;;;;;4626667;28;20454;-64
2021/11/12 11:31:42;;;;;;;19.35;10.85;;;12.40;64.40;;;;;;4640088;28;20451;-65
2021/11/12 11:34:00;;;;;;;18.20;10.95;;;12.50;64.10;;;;;;4642044;28;20037;-65
2021/11/12 11:36:18;;;;;;;18.80;10.90;;;12.50;63.80;;;;;;4625500;28;20182;-64
2021/11/12 11:38:37;;;;;;;19.73;10.77;;;12.60;63.60;;;;;;4626293;28;20041;-65
2021/11/12 11:40:53;;;;;;;22.58;11.80;;;12.70;63.40;;;;;;4625183;28;20523;-65
2021/11/12 11:43:11;;;;;;;17.35;11.00;;;12.70;63.20;;;;;;4625099;28;20071;-65
2021/11/12 11:45:30;;;;;;;17.20;10.95;;;12.80;62.80;;;;;;4623864;28;20060;-65
2021/11/12 11:47:49;;;;;;;16.88;9.45;;;12.90;62.70;;;;;;4626300;28;20111;-65
2021/11/12 11:50:21;;;;;;;18.42;10.10;;;12.90;62.40;;;;;;4625187;28;20075;-64
2021/11/12 11:52:38;;;;;;;16.45;9.50;;;13.00;62.10;;;;;;4624574;28;20117;-64
2021/11/12 11:54:55;;;;;;;18.17;10.00;;;13.10;62.60;;;;;;4626119;28;20045;-64
2021/11/12 11:57:17;;;;;;;16.80;9.95;;;13.20;61.70;;;;;;4640958;28;20075;-65
2021/11/12 11:59:37;;;;;;;21.65;11.80;;;13.20;61.40;;;;;;4625339;28;20055;-65
2021/11/12 12:01:56;;;;;;;18.75;10.65;;;13.20;61.00;;;;;;4640837;28;20225;-66
2021/11/12 12:04:35;;;;;;;18.77;10.80;;;13.30;60.80;;;;;;4641569;28;20052;-63
2021/11/12 12:07:30;;;;;;;19.75;11.15;;;13.40;60.60;;;;;;4624645;28;20079;-64
2021/11/12 12:09:50;;;;;;;19.67;11.10;;;13.40;60.60;;;;;;4587228;28;20054;-64
2021/11/12 12:12:08;;;;;;;19.85;11.40;;;13.40;60.30;;;;;;4615938;28;20056;-64
2021/11/12 12:14:31;;;;;;;19.33;11.50;;;13.50;60.00;;;;;;4625554;28;20406;-64
2021/11/12 12:16:52;;;;;;;38.60;21.50;;;13.50;60.30;;;;;;4625991;28;20094;-64
2021/11/12 12:19:41;;;;;;;21.63;11.73;;;13.60;59.30;;;;;;4623848;28;20045;-63
2021/11/12 12:22:15;;;;;;;21.20;11.60;;;13.50;59.30;;;;;;4625173;28;20206;-64
2021/11/12 12:35:46;;;;;;;20.63;12.02;;;13.70;58.50;;;;;;4630041;28;20400;-63
2021/11/12 13:20:39;;;;;;;22.15;11.55;;;14.70;55.00;;;;;;4631671;28;20073;-66
2021/11/12 13:23:13;;;;;;;34.28;21.75;;;14.70;54.80;;;;;;4632918;28;20052;-63
2021/11/12 13:25:33;;;;;;;25.17;13.73;;;14.70;54.60;;;;;;4632467;28;20076;-65
2021/11/12 13:27:49;;;;;;;21.90;11.48;;;14.60;54.50;;;;;;4647614;28;20128;-64
2021/11/12 13:30:07;;;;;;;22.70;13.70;;;14.60;54.50;;;;;;4632467;28;20056;-64
2021/11/12 13:32:23;;;;;;;21.38;12.27;;;14.50;54.50;;;;;;4632064;28;20049;-64
2021/11/12 13:34:45;;;;;;;20.10;11.40;;;14.40;54.50;;;;;;4647918;28;20053;-64
2021/11/12 13:37:11;;;;;;;22.52;11.70;;;14.30;54.60;;;;;;4630441;28;20045;-64
2021/11/12 13:39:28;;;;;;;20.67;11.32;;;14.20;54.60;;;;;;4632868;28;20079;-64
2021/11/12 13:41:47;;;;;;;26.30;11.68;;;14.20;54.60;;;;;;4630052;28;20074;-64
2021/11/12 13:44:06;;;;;;;25.02;11.15;;;14.10;54.60;;;;;;4648226;28;20048;-64
2021/11/12 13:46:25;;;;;;;19.92;11.50;;;14.00;54.60;;;;;;4631103;28;20084;-64
2021/11/12 13:48:44;;;;;;;21.77;11.00;;;14.00;54.50;;;;;;4632617;28;20517;-64
2021/11/12 13:51:02;;;;;;;24.65;12.10;;;13.90;54.60;;;;;;4631714;28;20049;-64
2021/11/12 13:53:26;;;;;;;27.55;10.45;;;13.80;54.50;;;;;;4647631;28;20055;-64
2021/11/12 13:55:44;;;;;;;22.25;11.88;;;13.80;54.40;;;;;;4632019;28;20057;-63
2021/11/12 13:58:03;;;;;;;25.52;10.90;;;13.80;54.40;;;;;;4630954;28;20045;-65
2021/11/12 14:00:20;;;;;;;22.83;11.32;;;13.70;54.40;;;;;;4630738;28;20056;-64
2021/11/12 14:02:51;;;;;;;24.45;11.57;;;13.60;54.40;;;;;;4631596;28;20567;-64
2021/11/12 14:05:09;;;;;;;25.88;11.18;;;13.60;54.50;;;;;;4632098;28;20048;-64
2021/11/12 14:07:27;;;;;;;25.77;10.98;;;13.50;54.60;;;;;;4646393;28;20072;-64
2021/11/12 14:09:44;;;;;;;30.45;15.05;;;13.40;54.60;;;;;;4647567;28;20449;-64
2021/11/12 14:12:04;;;;;;;36.35;17.33;;;13.40;54.80;;;;;;4645939;28;20123;-64
2021/11/12 14:14:23;;;;;;;28.38;11.48;;;13.30;54.80;;;;;;4632241;28;20060;-64
2021/11/12 14:16:49;;;;;;;18.70;10.80;;;13.30;54.90;;;;;;4629619;28;20056;-64
2021/11/12 14:19:33;;;;;;;21.90;11.57;;;13.20;55.00;;;;;;4647399;28;20123;-65
2021/11/12 14:21:53;;;;;;;20.70;10.83;;;13.10;55.10;;;;;;4631408;28;20471;-64
2021/11/12 14:26:53;;;;;;;20.25;10.68;;;13.00;55.60;;;;;;4628233;28;20156;-63
2021/11/12 14:29:36;;;;;;;21.63;9.85;;;12.90;55.80;;;;;;4630645;28;20079;-64
2021/11/12 14:32:12;;;;;;;20.00;10.50;;;12.80;56.00;;;;;;4631799;28;20056;-64
2021/11/12 14:34:38;;;;;;;21.05;10.75;;;12.70;56.30;;;;;;4630901;28;20069;-64
2021/11/12 14:36:58;;;;;;;28.70;11.15;;;12.70;56.60;;;;;;4631145;28;20045;-64
2021/11/12 14:42:34;;;;;;;17.08;10.20;;;12.60;56.90;;;;;;4625495;28;20048;-65
2021/11/12 14:45:09;;;;;;;21.85;10.55;;;12.50;57.00;;;;;;4630009;28;20057;-64
2021/11/12 14:47:37;;;;;;;28.60;12.32;;;12.40;57.20;;;;;;4629360;28;20049;-64
2021/11/12 14:50:01;;;;;;;22.55;10.68;;;12.30;58.10;;;;;;4630977;28;20055;-64
2021/11/12 14:52:23;;;;;;;22.35;11.52;;;12.20;57.60;;;;;;4629751;28;20048;-65
2021/11/12 14:54:46;;;;;;;30.73;12.15;;;12.20;57.80;;;;;;4630585;28;20067;-65
2021/11/12 14:57:08;;;;;;;24.58;11.50;;;12.10;58.00;;;;;;4631251;28;20055;-64
2021/11/12 14:59:28;;;;;;;23.42;10.55;;;12.00;58.20;;;;;;4630334;28;20052;-64
2021/11/12 15:01:45;;;;;;;24.27;10.80;;;11.90;58.30;;;;;;4631511;28;20051;-64
2021/11/12 15:04:04;;;;;;;17.92;9.60;;;11.90;58.60;;;;;;4645280;28;20083;-63
2021/11/12 15:06:23;;;;;;;23.45;10.65;;;11.80;58.70;;;;;;4631370;28;20036;-64
2021/11/12 15:08:47;;;;;;;23.05;9.73;;;11.70;58.90;;;;;;4629818;28;20045;-63
2021/11/12 15:11:04;;;;;;;36.08;11.95;;;11.60;59.00;;;;;;4629908;28;20458;-64